Time;durP1;ratioP1;P1;durP2;ratioP2;P2;SDS_P1;SDS_P2;PMS_P1;PMS_P2;Temp;Humidity;BMP_temperature;BMP_pressure;BME280_temperature;BME280_humidity;BME280_pressure;Samples;Min_cycle;Max_cycle;Signal;HPM_P1;HPM_P2
2022/07/02 00:00:56;;;;;;;;;;;26.10;91.70;;;;;;5068118;28;19946;-55
2022/07/02 00:03:24;;;;;;;;;;;26.10;91.70;;;;;;5050208;28;19924;-56
2022/07/02 00:05:56;;;;;;;;;;;26.20;91.80;;;;;;5051092;28;19932;-53
2022/07/02 00:08:26;;;;;;;;;;;26.10;91.80;;;;;;5051879;28;19921;-54
2022/07/02 00:10:54;;;;;;;;;;;26.10;91.80;;;;;;5054809;28;19924;-53
2022/07/02 00:13:23;;;;;;;;;;;26.10;91.80;;;;;;5052642;28;20384;-51
2022/07/02 00:15:50;;;;;;;;;;;26.10;91.80;;;;;;5049382;28;19931;-52
2022/07/02 00:18:18;;;;;;;;;;;26.10;91.80;;;;;;5048905;28;19925;-51
2022/07/02 00:20:45;;;;;;;;;;;26.10;91.80;;;;;;5048945;28;19925;-53
2022/07/02 00:23:12;;;;;;;;;;;26.10;91.80;;;;;;5049648;28;19928;-56
2022/07/02 00:25:44;;;;;;;;;;;26.10;91.80;;;;;;5050354;28;20672;-54
2022/07/02 00:28:12;;;;;;;;;;;26.10;91.80;;;;;;5049083;28;19927;-54
2022/07/02 00:30:40;;;;;;;;;;;26.10;91.80;;;;;;5048444;28;20387;-54
2022/07/02 00:33:09;;;;;;;;;;;26.10;91.80;;;;;;5048694;28;19925;-55
2022/07/02 00:35:36;;;;;;;;;;;26.10;91.80;;;;;;5050679;28;19928;-50
2022/07/02 00:38:04;;;;;;;;;;;26.10;91.80;;;;;;5054060;28;19921;-51
2022/07/02 00:40:32;;;;;;;;;;;26.10;91.80;;;;;;5050925;28;19955;-49
2022/07/02 00:42:59;;;;;;;;;;;26.10;91.80;;;;;;5056994;28;19951;-53
2022/07/02 00:45:27;;;;;;;;;;;26.00;91.80;;;;;;5068062;28;19925;-55
2022/07/02 00:47:55;;;;;;;;;;;26.00;91.80;;;;;;5054994;28;19921;-56
2022/07/02 00:50:22;;;;;;;;;;;26.00;91.80;;;;;;5054449;28;19924;-53
2022/07/02 00:52:50;;;;;;;;;;;26.00;91.80;;;;;;5050738;28;19975;-55
2022/07/02 00:55:17;;;;;;;;;;;26.00;91.80;;;;;;5048332;28;19924;-55
2022/07/02 00:57:47;;;;;;;;;;;26.00;91.80;;;;;;5047863;28;19931;-53
2022/07/02 01:00:15;;;;;;;;;;;26.00;91.80;;;;;;5053049;28;20351;-52
2022/07/02 01:02:44;;;;;;;;;;;26.00;91.80;;;;;;5056043;28;19921;-55
2022/07/02 01:05:13;;;;;;;;;;;26.00;91.80;;;;;;5058016;28;20015;-52
2022/07/02 01:07:44;;;;;;;;;;;26.00;91.80;;;;;;5047671;28;19931;-52
2022/07/02 01:10:19;;;;;;;;;;;26.00;91.80;;;;;;5047927;28;19924;-51
2022/07/02 01:12:47;;;;;;;;;;;26.00;91.80;;;;;;5050183;28;19924;-54
2022/07/02 01:15:15;;;;;;;;;;;26.00;91.80;;;;;;5057981;28;19932;-54
2022/07/02 01:17:42;;;;;;;;;;;26.00;91.80;;;;;;5048995;28;19920;-54
2022/07/02 01:20:10;;;;;;;;;;;26.00;91.80;;;;;;5058823;28;20357;-51
2022/07/02 01:22:38;;;;;;;;;;;26.00;91.80;;;;;;5047000;28;19925;-53
2022/07/02 01:25:06;;;;;;;;;;;26.00;91.80;;;;;;5048242;28;20303;-50
2022/07/02 01:27:34;;;;;;;;;;;26.00;91.80;;;;;;5049171;28;19920;-55
2022/07/02 01:30:02;;;;;;;;;;;26.00;91.80;;;;;;5048565;28;19947;-56
2022/07/02 01:32:29;;;;;;;;;;;26.00;91.80;;;;;;5047418;28;19921;-52
2022/07/02 01:35:06;;;;;;;;;;;26.00;91.80;;;;;;5047372;28;19920;-50
2022/07/02 01:37:33;;;;;;;;;;;26.00;91.80;;;;;;5047362;28;19920;-51
2022/07/02 01:40:00;;;;;;;;;;;25.90;91.80;;;;;;5048606;28;19924;-56
2022/07/02 01:42:27;;;;;;;;;;;26.00;91.80;;;;;;5050920;28;19921;-51
2022/07/02 01:44:54;;;;;;;;;;;26.00;91.90;;;;;;5059148;28;19921;-51
2022/07/02 01:47:22;;;;;;;;;;;25.90;91.80;;;;;;5051229;28;19927;-53
2022/07/02 01:49:49;;;;;;;;;;;25.90;91.80;;;;;;5049124;28;20403;-55
2022/07/02 01:52:16;;;;;;;;;;;25.90;91.80;;;;;;5062196;28;19925;-57
2022/07/02 01:54:44;;;;;;;;;;;25.90;91.80;;;;;;5047056;28;19925;-52
2022/07/02 01:57:12;;;;;;;;;;;25.90;91.80;;;;;;5046848;28;20410;-52
2022/07/02 01:59:39;;;;;;;;;;;25.90;91.80;;;;;;5054401;28;19924;-51
2022/07/02 02:02:06;;;;;;;;;;;25.90;91.80;;;;;;5049990;28;19928;-51
2022/07/02 02:04:34;;;;;;;;;;;25.90;91.80;;;;;;5060083;28;19944;-50
2022/07/02 02:07:02;;;;;;;;;;;25.80;91.80;;;;;;5047179;28;19935;-49
2022/07/02 02:09:29;;;;;;;;;;;25.90;91.80;;;;;;5047091;28;19951;-53
2022/07/02 02:11:57;;;;;;;;;;;25.90;91.90;;;;;;5050074;28;19925;-54
2022/07/02 02:14:24;;;;;;;;;;;25.90;91.80;;;;;;5062019;28;19924;-54
2022/07/02 02:16:51;;;;;;;;;;;25.90;91.80;;;;;;5050931;28;19924;-51
2022/07/02 02:19:18;;;;;;;;;;;25.90;91.90;;;;;;5051964;28;19920;-53
2022/07/02 02:21:45;;;;;;;;;;;25.90;91.90;;;;;;5050922;28;19929;-51
2022/07/02 02:24:13;;;;;;;;;;;25.90;91.80;;;;;;5052367;28;19920;-55
2022/07/02 02:26:40;;;;;;;;;;;25.80;91.80;;;;;;5051061;28;20394;-53
2022/07/02 02:29:08;;;;;;;;;;;25.80;91.80;;;;;;5053278;28;19932;-53
2022/07/02 02:31:35;;;;;;;;;;;25.80;91.80;;;;;;5050277;28;19963;-54
2022/07/02 02:34:02;;;;;;;;;;;25.80;91.80;;;;;;5050586;28;19968;-52
2022/07/02 02:36:30;;;;;;;;;;;25.80;91.80;;;;;;5050720;28;19935;-49
2022/07/02 02:38:57;;;;;;;;;;;25.80;91.80;;;;;;5050650;28;19924;-50
2022/07/02 02:41:24;;;;;;;;;;;25.80;91.80;;;;;;5057335;28;19939;-51
2022/07/02 02:43:51;;;;;;;;;;;25.80;91.80;;;;;;5058474;28;20042;-55
2022/07/02 02:46:18;;;;;;;;;;;25.80;92.10;;;;;;5058453;28;19921;-53
2022/07/02 02:48:45;;;;;;;;;;;25.80;91.80;;;;;;5050832;28;19925;-54
2022/07/02 02:51:15;;;;;;;;;;;25.80;91.90;;;;;;5052111;28;20303;-54
2022/07/02 02:53:42;;;;;;;;;;;25.70;91.80;;;;;;5050764;28;20346;-55
2022/07/02 02:56:10;;;;;;;;;;;25.80;91.90;;;;;;5051009;28;19935;-54
2022/07/02 02:58:38;;;;;;;;;;;25.70;91.90;;;;;;5050736;28;19932;-51
2022/07/02 03:01:05;;;;;;;;;;;25.80;91.90;;;;;;5067201;28;20406;-51
2022/07/02 03:03:32;;;;;;;;;;;25.70;91.90;;;;;;5052874;28;19936;-54
2022/07/02 03:05:59;;;;;;;;;;;25.70;91.80;;;;;;5055614;28;19955;-53
2022/07/02 03:08:27;;;;;;;;;;;25.70;91.90;;;;;;5056363;28;20238;-55
2022/07/02 03:10:54;;;;;;;;;;;25.70;91.80;;;;;;5060365;28;19924;-55
2022/07/02 03:13:21;;;;;;;;;;;25.70;91.90;;;;;;5053259;28;20380;-56
2022/07/02 03:15:48;;;;;;;;;;;25.70;91.80;;;;;;5051087;28;19932;-56
2022/07/02 03:18:15;;;;;;;;;;;25.70;91.90;;;;;;5050477;28;20431;-51
2022/07/02 03:20:42;;;;;;;;;;;25.70;91.90;;;;;;5049583;28;19932;-51
2022/07/02 03:23:09;;;;;;;;;;;25.70;91.90;;;;;;5049566;28;19924;-54
2022/07/02 03:25:37;;;;;;;;;;;25.70;91.90;;;;;;5050005;28;20262;-53
2022/07/02 03:28:05;;;;;;;;;;;25.70;91.90;;;;;;5050414;28;20380;-51
2022/07/02 03:30:32;;;;;;;;;;;25.70;91.90;;;;;;5053007;28;20140;-53
2022/07/02 03:32:59;;;;;;;;;;;25.70;91.90;;;;;;5048828;28;19924;-53
2022/07/02 03:35:26;;;;;;;;;;;25.70;91.90;;;;;;5053927;28;20134;-54
2022/07/02 03:37:53;;;;;;;;;;;25.70;91.90;;;;;;5052249;28;19933;-48
2022/07/02 03:40:21;;;;;;;;;;;25.70;91.90;;;;;;5048215;28;19939;-50
2022/07/02 03:42:48;;;;;;;;;;;25.70;91.90;;;;;;5077235;28;19924;-53
2022/07/02 03:45:15;;;;;;;;;;;25.70;91.90;;;;;;5056700;28;19924;-48
2022/07/02 03:47:42;;;;;;;;;;;25.60;91.90;;;;;;5049368;28;20292;-51
2022/07/02 03:50:09;;;;;;;;;;;25.60;91.90;;;;;;5050273;28;20361;-51
2022/07/02 03:52:38;;;;;;;;;;;25.60;91.90;;;;;;5048634;28;20400;-53
2022/07/02 03:55:06;;;;;;;;;;;25.60;91.90;;;;;;5051188;28;20439;-54
2022/07/02 03:57:34;;;;;;;;;;;25.60;91.90;;;;;;5051245;28;19928;-54
2022/07/02 04:00:02;;;;;;;;;;;25.60;91.90;;;;;;5058720;28;19929;-56
2022/07/02 04:02:39;;;;;;;;;;;25.60;91.90;;;;;;5055246;28;20312;-53
2022/07/02 04:05:06;;;;;;;;;;;25.60;91.90;;;;;;5048848;28;19925;-51
2022/07/02 04:07:33;;;;;;;;;;;25.60;91.90;;;;;;5050925;28;20300;-53
2022/07/02 04:10:00;;;;;;;;;;;25.60;91.90;;;;;;5048295;28;20414;-55
2022/07/02 04:12:28;;;;;;;;;;;25.60;91.90;;;;;;5058326;28;19927;-53
2022/07/02 04:14:55;;;;;;;;;;;25.60;91.90;;;;;;5055779;28;20383;-55
2022/07/02 04:17:22;;;;;;;;;;;25.60;91.90;;;;;;5052987;28;19931;-52
2022/07/02 04:19:49;;;;;;;;;;;25.60;91.90;;;;;;5050341;28;19935;-51
2022/07/02 04:22:16;;;;;;;;;;;25.60;91.90;;;;;;5050533;28;19935;-50
2022/07/02 04:24:43;;;;;;;;;;;25.60;91.90;;;;;;5048580;28;19924;-51
2022/07/02 04:27:10;;;;;;;;;;;25.60;91.90;;;;;;5049742;28;19932;-52
2022/07/02 04:29:37;;;;;;;;;;;25.60;91.90;;;;;;5062964;28;19924;-55
2022/07/02 04:32:05;;;;;;;;;;;25.60;91.90;;;;;;5048511;28;19929;-52
2022/07/02 04:34:32;;;;;;;;;;;25.60;91.90;;;;;;5050062;28;19928;-53
2022/07/02 04:36:59;;;;;;;;;;;25.60;91.90;;;;;;5048390;28;20512;-55
2022/07/02 04:39:26;;;;;;;;;;;25.60;91.90;;;;;;5048540;28;19924;-54
2022/07/02 04:41:53;;;;;;;;;;;25.60;91.90;;;;;;5055754;28;20403;-55
2022/07/02 04:44:21;;;;;;;;;;;25.60;91.80;;;;;;5048651;28;19925;-52
2022/07/02 04:46:48;;;;;;;;;;;25.60;91.80;;;;;;5049234;28;19935;-51
2022/07/02 04:49:15;;;;;;;;;;;25.60;91.80;;;;;;5059283;28;19924;-54
2022/07/02 04:51:42;;;;;;;;;;;25.60;91.80;;;;;;5049408;28;19925;-53
2022/07/02 04:54:09;;;;;;;;;;;25.60;91.80;;;;;;5066405;28;19927;-53
2022/07/02 04:56:37;;;;;;;;;;;25.60;92.10;;;;;;5067910;28;19927;-54
2022/07/02 04:59:04;;;;;;;;;;;25.60;91.80;;;;;;5050177;28;19931;-55
2022/07/02 05:01:31;;;;;;;;;;;25.60;91.80;;;;;;5064711;28;20307;-53
2022/07/02 05:03:58;;;;;;;;;;;25.70;91.80;;;;;;5060917;28;20255;-49
2022/07/02 05:06:25;;;;;;;;;;;25.70;91.80;;;;;;5047884;28;19931;-52
2022/07/02 05:08:52;;;;;;;;;;;25.70;91.80;;;;;;5047803;28;20357;-51
2022/07/02 05:11:19;;;;;;;;;;;25.70;91.80;;;;;;5050989;28;19932;-51
2022/07/02 05:13:47;;;;;;;;;;;25.70;92.00;;;;;;5057039;28;19935;-54
2022/07/02 05:16:15;;;;;;;;;;;25.70;91.80;;;;;;5049114;28;19924;-51
2022/07/02 05:18:43;;;;;;;;;;;25.60;91.80;;;;;;5056375;28;20486;-54
2022/07/02 05:21:10;;;;;;;;;;;25.60;91.80;;;;;;5078535;28;20505;-54
2022/07/02 05:23:37;;;;;;;;;;;25.60;91.80;;;;;;5053232;28;19932;-54
2022/07/02 05:26:05;;;;;;;;;;;25.60;91.80;;;;;;5055578;28;20319;-54
2022/07/02 05:28:32;;;;;;;;;;;25.60;91.80;;;;;;5066085;28;20316;-56
2022/07/02 05:30:59;;;;;;;;;;;25.60;91.80;;;;;;5055437;28;19921;-55
2022/07/02 05:33:26;;;;;;;;;;;25.60;91.80;;;;;;5055002;28;19935;-55
2022/07/02 05:35:53;;;;;;;;;;;25.60;91.80;;;;;;5059951;28;19925;-55
2022/07/02 05:38:20;;;;;;;;;;;25.60;91.80;;;;;;5059650;28;20504;-56
2022/07/02 05:40:48;;;;;;;;;;;25.60;91.80;;;;;;5053713;28;20013;-54
2022/07/02 05:43:15;;;;;;;;;;;25.60;91.80;;;;;;5065474;28;19925;-54
2022/07/02 05:45:42;;;;;;;;;;;25.60;91.80;;;;;;5050337;28;19920;-54
2022/07/02 05:48:16;;;;;;;;;;;25.60;91.80;;;;;;5060651;28;19932;-52
2022/07/02 05:50:43;;;;;;;;;;;25.60;91.80;;;;;;5051125;28;19948;-53
2022/07/02 05:53:10;;;;;;;;;;;25.60;91.80;;;;;;5051769;28;19932;-54
2022/07/02 05:55:38;;;;;;;;;;;25.60;91.80;;;;;;5054663;28;19944;-53
2022/07/02 05:58:05;;;;;;;;;;;25.60;91.80;;;;;;5069428;28;19925;-54
2022/07/02 06:00:33;;;;;;;;;;;25.60;91.80;;;;;;5059587;28;19935;-54
2022/07/02 06:03:00;;;;;;;;;;;25.60;91.70;;;;;;5051256;28;19932;-53
2022/07/02 06:08:13;;;;;;;;;;;25.60;91.80;;;;;;5052501;28;20312;-56
2022/07/02 06:10:40;;;;;;;;;;;25.60;91.80;;;;;;5052830;28;20304;-55
2022/07/02 06:13:07;;;;;;;;;;;25.60;91.80;;;;;;5052436;28;19924;-49
2022/07/02 06:15:35;;;;;;;;;;;25.60;91.70;;;;;;5051401;28;20662;-52
2022/07/02 06:18:02;;;;;;;;;;;25.60;91.70;;;;;;5051717;28;19931;-55
2022/07/02 06:20:29;;;;;;;;;;;25.60;91.70;;;;;;5050951;28;19921;-56
2022/07/02 06:22:56;;;;;;;;;;;25.60;91.70;;;;;;5050737;28;19924;-52
2022/07/02 06:25:23;;;;;;;;;;;25.60;91.80;;;;;;5050621;28;20347;-54
2022/07/02 06:27:50;;;;;;;;;;;25.60;91.80;;;;;;5052073;28;19932;-50
2022/07/02 06:30:18;;;;;;;;;;;25.60;91.80;;;;;;5050938;28;19931;-52
2022/07/02 06:32:45;;;;;;;;;;;25.60;91.80;;;;;;5057243;28;20471;-50
2022/07/02 06:35:12;;;;;;;;;;;25.60;91.80;;;;;;5068079;28;20919;-53
2022/07/02 06:37:39;;;;;;;;;;;25.60;91.80;;;;;;5051360;28;19920;-53
2022/07/02 06:40:07;;;;;;;;;;;25.60;91.80;;;;;;5051570;28;19928;-51
2022/07/02 06:42:34;;;;;;;;;;;25.60;91.80;;;;;;5059384;28;19935;-54
2022/07/02 06:45:02;;;;;;;;;;;25.60;91.80;;;;;;5050765;28;19924;-55
2022/07/02 06:47:31;;;;;;;;;;;25.60;91.80;;;;;;5051358;28;20285;-53
2022/07/02 06:50:00;;;;;;;;;;;25.60;91.80;;;;;;5050336;28;19946;-52
2022/07/02 06:52:28;;;;;;;;;;;25.60;91.80;;;;;;5056399;28;19924;-58
2022/07/02 06:54:57;;;;;;;;;;;25.60;91.80;;;;;;5050616;28;19925;-54
2022/07/02 06:57:24;;;;;;;;;;;25.60;91.80;;;;;;5053785;28;19931;-51
2022/07/02 06:59:53;;;;;;;;;;;25.60;91.80;;;;;;5066456;28;19935;-51
2022/07/02 07:02:21;;;;;;;;;;;25.60;91.80;;;;;;5051203;28;20414;-57
2022/07/02 07:04:48;;;;;;;;;;;25.60;91.80;;;;;;5050200;28;19927;-54
2022/07/02 07:07:17;;;;;;;;;;;25.60;91.80;;;;;;5050346;28;19936;-52
2022/07/02 07:09:44;;;;;;;;;;;25.60;91.90;;;;;;5049703;28;20424;-54
2022/07/02 07:12:11;;;;;;;;;;;25.60;91.90;;;;;;5049619;28;19932;-51
2022/07/02 07:14:38;;;;;;;;;;;25.60;91.90;;;;;;5048109;28;19935;-53
2022/07/02 07:17:06;;;;;;;;;;;25.60;91.90;;;;;;5051851;28;19943;-52
2022/07/02 07:19:33;;;;;;;;;;;25.60;91.90;;;;;;5049986;28;19950;-53
2022/07/02 07:22:01;;;;;;;;;;;25.60;91.90;;;;;;5048686;28;20313;-53
2022/07/02 07:24:28;;;;;;;;;;;25.70;92.00;;;;;;5048727;28;19931;-54
2022/07/02 07:26:57;;;;;;;;;;;25.70;91.90;;;;;;5050454;28;19925;-57
2022/07/02 07:29:24;;;;;;;;;;;25.70;91.90;;;;;;5066498;28;20252;-57
2022/07/02 07:31:51;;;;;;;;;;;25.70;92.00;;;;;;5051346;28;20307;-57
2022/07/02 07:34:19;;;;;;;;;;;25.70;92.00;;;;;;5068541;28;19921;-56
2022/07/02 07:36:46;;;;;;;;;;;25.70;92.00;;;;;;5053080;28;20468;-55
2022/07/02 07:39:13;;;;;;;;;;;25.70;92.00;;;;;;5050692;28;19925;-55
2022/07/02 07:41:40;;;;;;;;;;;25.70;92.00;;;;;;5060231;28;19995;-53
2022/07/02 07:44:08;;;;;;;;;;;25.70;92.00;;;;;;5072291;28;19924;-54
2022/07/02 07:46:35;;;;;;;;;;;25.70;92.10;;;;;;5059680;28;19924;-53
2022/07/02 07:49:02;;;;;;;;;;;25.70;92.10;;;;;;5054046;28;20363;-55
2022/07/02 07:51:30;;;;;;;;;;;25.70;92.40;;;;;;5054693;28;19932;-58
2022/07/02 07:53:57;;;;;;;;;;;25.70;92.10;;;;;;5064490;28;20280;-50
2022/07/02 07:56:24;;;;;;;;;;;25.70;92.10;;;;;;5049296;28;19924;-52
2022/07/02 07:58:51;;;;;;;;;;;25.70;92.10;;;;;;5049565;28;19932;-56
2022/07/02 08:01:18;;;;;;;;;;;25.70;92.20;;;;;;5051217;28;19928;-56
2022/07/02 08:03:46;;;;;;;;;;;25.70;92.20;;;;;;5048287;28;19924;-53
2022/07/02 08:06:13;;;;;;;;;;;25.70;92.20;;;;;;5048398;28;19921;-49
2022/07/02 08:08:40;;;;;;;;;;;25.70;92.20;;;;;;5048822;28;20016;-51
2022/07/02 08:11:07;;;;;;;;;;;25.70;92.20;;;;;;5068611;28;19932;-51
2022/07/02 08:13:34;;;;;;;;;;;25.80;92.20;;;;;;5057541;28;19936;-52
2022/07/02 08:16:02;;;;;;;;;;;25.70;92.20;;;;;;5062817;28;19921;-52
2022/07/02 08:18:32;;;;;;;;;;;25.70;92.20;;;;;;5048318;28;19931;-55
2022/07/02 08:21:00;;;;;;;;;;;25.70;92.20;;;;;;5047413;28;20288;-50
2022/07/02 08:23:27;;;;;;;;;;;25.70;92.20;;;;;;5048799;28;20302;-52
2022/07/02 08:25:56;;;;;;;;;;;25.80;92.30;;;;;;5047622;28;19943;-53
2022/07/02 08:28:23;;;;;;;;;;;25.80;92.30;;;;;;5045867;28;19924;-53
2022/07/02 08:30:51;;;;;;;;;;;25.70;92.20;;;;;;5047907;28;19925;-51
2022/07/02 08:33:18;;;;;;;;;;;25.80;92.30;;;;;;5047144;28;20363;-52
2022/07/02 08:35:46;;;;;;;;;;;25.70;92.20;;;;;;5063519;28;19924;-53
2022/07/02 08:38:13;;;;;;;;;;;25.80;92.30;;;;;;5047766;28;20285;-52
2022/07/02 08:40:42;;;;;;;;;;;25.80;92.30;;;;;;5056933;28;19934;-51
2022/07/02 08:43:13;;;;;;;;;;;25.70;92.20;;;;;;5058181;28;19921;-52
2022/07/02 08:45:43;;;;;;;;;;;25.80;92.30;;;;;;5052180;28;19967;-53
2022/07/02 08:48:11;;;;;;;;;;;25.80;92.30;;;;;;5051558;28;19924;-54
2022/07/02 08:50:39;;;;;;;;;;;25.80;92.30;;;;;;5057151;28;19925;-52
2022/07/02 08:53:07;;;;;;;;;;;25.80;92.30;;;;;;5047960;28;20283;-53
2022/07/02 08:55:34;;;;;;;;;;;25.80;92.30;;;;;;5048870;28;20190;-53
2022/07/02 08:58:02;;;;;;;;;;;25.80;92.30;;;;;;5047791;28;19924;-49
2022/07/02 09:00:29;;;;;;;;;;;25.80;92.30;;;;;;5055064;28;20038;-53
2022/07/02 09:02:58;;;;;;;;;;;25.80;92.30;;;;;;5059433;28;19925;-50
2022/07/02 09:05:27;;;;;;;;;;;25.80;92.20;;;;;;5047504;28;19928;-54
2022/07/02 09:07:55;;;;;;;;;;;25.80;92.20;;;;;;5047241;28;20308;-52
2022/07/02 09:10:23;;;;;;;;;;;25.80;92.20;;;;;;5048156;28;19939;-51
2022/07/02 09:12:52;;;;;;;;;;;25.90;92.20;;;;;;5046844;28;19924;-57
2022/07/02 09:15:19;;;;;;;;;;;25.80;92.20;;;;;;5046392;28;19928;-53
2022/07/02 09:17:46;;;;;;;;;;;25.80;92.10;;;;;;5046127;28;19932;-49
2022/07/02 09:20:14;;;;;;;;;;;25.90;92.20;;;;;;5045963;28;20020;-53
2022/07/02 09:22:46;;;;;;;;;;;25.90;92.10;;;;;;5045730;28;19925;-52
2022/07/02 09:25:15;;;;;;;;;;;25.90;92.10;;;;;;5051643;28;19928;-49
2022/07/02 09:27:44;;;;;;;;;;;25.90;92.20;;;;;;5046332;28;20257;-54
2022/07/02 09:30:13;;;;;;;;;;;25.90;92.20;;;;;;5046756;28;19936;-52
2022/07/02 09:32:45;;;;;;;;;;;25.90;92.20;;;;;;5047988;28;19947;-55
2022/07/02 09:35:19;;;;;;;;;;;25.90;92.10;;;;;;5048607;28;19921;-57
2022/07/02 09:37:50;;;;;;;;;;;25.90;92.10;;;;;;5049101;28;20337;-56
2022/07/02 09:40:20;;;;;;;;;;;25.90;92.10;;;;;;5059622;28;19955;-55
2022/07/02 09:42:47;;;;;;;;;;;25.80;92.10;;;;;;5059241;28;19948;-52
2022/07/02 09:45:15;;;;;;;;;;;25.90;92.20;;;;;;5052547;28;19924;-51
2022/07/02 09:47:50;;;;;;;;;;;25.90;92.10;;;;;;5053818;28;19927;-53
2022/07/02 09:50:18;;;;;;;;;;;25.90;92.10;;;;;;5047136;28;19924;-53
2022/07/02 09:52:53;;;;;;;;;;;25.90;92.10;;;;;;5046753;28;19940;-53
2022/07/02 09:55:20;;;;;;;;;;;25.90;92.10;;;;;;5047756;28;20012;-53
2022/07/02 09:57:52;;;;;;;;;;;25.90;92.10;;;;;;5046862;28;19936;-52
2022/07/02 10:00:19;;;;;;;;;;;25.80;92.10;;;;;;5055226;28;19928;-56
2022/07/02 10:02:51;;;;;;;;;;;25.90;92.10;;;;;;5045138;28;19929;-56
2022/07/02 10:05:28;;;;;;;;;;;25.90;92.10;;;;;;5046192;28;20314;-56
2022/07/02 10:07:57;;;;;;;;;;;25.80;92.10;;;;;;5048012;28;19928;-58
2022/07/02 10:10:40;;;;;;;;;;;25.90;92.10;;;;;;5048065;28;19921;-57
2022/07/02 10:13:08;;;;;;;;;;;25.80;92.10;;;;;;5048575;28;20010;-51
2022/07/02 10:15:38;;;;;;;;;;;25.80;92.10;;;;;;5055859;28;19929;-53
2022/07/02 10:18:06;;;;;;;;;;;25.90;92.10;;;;;;5064222;28;19936;-53
2022/07/02 10:20:35;;;;;;;;;;;25.80;92.10;;;;;;5058840;28;20002;-54
2022/07/02 10:23:03;;;;;;;;;;;25.90;92.10;;;;;;5046320;28;19921;-52
2022/07/02 10:25:31;;;;;;;;;;;25.90;92.10;;;;;;5047299;28;20128;-56
2022/07/02 10:27:58;;;;;;;;;;;25.80;92.00;;;;;;5056907;28;19924;-52
2022/07/02 10:30:36;;;;;;;;;;;25.90;92.10;;;;;;5045793;28;19999;-53
2022/07/02 10:33:12;;;;;;;;;;;25.80;92.00;;;;;;5050069;28;19924;-52
2022/07/02 10:35:39;;;;;;;;;;;25.90;92.10;;;;;;5050935;28;19921;-53
2022/07/02 10:38:07;;;;;;;;;;;25.90;92.10;;;;;;5069411;28;19927;-55
2022/07/02 10:40:44;;;;;;;;;;;25.90;92.10;;;;;;5064549;28;20280;-52
2022/07/02 10:43:18;;;;;;;;;;;25.80;92.00;;;;;;5049214;28;20346;-55
2022/07/02 10:45:45;;;;;;;;;;;25.90;92.00;;;;;;5051790;28;19932;-52
2022/07/02 10:48:13;;;;;;;;;;;25.80;92.00;;;;;;5059313;28;19928;-53
2022/07/02 10:50:45;;;;;;;;;;;25.80;92.00;;;;;;5050507;28;20263;-50
2022/07/02 10:53:17;;;;;;;;;;;25.90;92.00;;;;;;5049578;28;20400;-53
2022/07/02 10:56:04;;;;;;;;;;;25.90;92.00;;;;;;5050700;28;19925;-52
2022/07/02 10:58:37;;;;;;;;;;;25.90;92.00;;;;;;5047424;28;20135;-52
2022/07/02 11:01:12;;;;;;;;;;;25.90;92.00;;;;;;5065764;28;19931;-55
2022/07/02 11:03:51;;;;;;;;;;;25.80;91.90;;;;;;5050138;28;19928;-52
2022/07/02 11:06:23;;;;;;;;;;;25.80;92.00;;;;;;5049205;28;19921;-51
2022/07/02 11:09:00;;;;;;;;;;;25.90;92.00;;;;;;5049347;28;19947;-54
2022/07/02 11:11:36;;;;;;;;;;;25.90;91.90;;;;;;5056497;28;19928;-56
2022/07/02 11:14:04;;;;;;;;;;;25.90;92.20;;;;;;5050976;28;20020;-56
2022/07/02 11:16:39;;;;;;;;;;;25.90;91.90;;;;;;5058368;28;20001;-52
2022/07/02 11:19:17;;;;;;;;;;;25.90;91.90;;;;;;5063304;28;19921;-52
2022/07/02 11:21:45;;;;;;;;;;;25.90;91.90;;;;;;5061641;28;19921;-53
2022/07/02 11:24:14;;;;;;;;;;;25.90;91.90;;;;;;5049670;28;20333;-56
2022/07/02 11:26:42;;;;;;;;;;;25.90;91.80;;;;;;5050915;28;20281;-55
2022/07/02 11:29:10;;;;;;;;;;;25.90;91.80;;;;;;5049545;28;20316;-55
2022/07/02 11:31:39;;;;;;;;;;;25.90;91.80;;;;;;5049022;28;20027;-51
2022/07/02 11:34:07;;;;;;;;;;;25.90;91.80;;;;;;5049182;28;19931;-55
2022/07/02 11:36:38;;;;;;;;;;;25.90;91.80;;;;;;5049406;28;19924;-52
2022/07/02 11:39:09;;;;;;;;;;;25.90;91.80;;;;;;5050316;28;19925;-52
2022/07/02 11:41:37;;;;;;;;;;;25.90;91.80;;;;;;5071618;28;19925;-55
2022/07/02 11:44:16;;;;;;;;;;;25.90;91.80;;;;;;5049925;28;19939;-51
2022/07/02 11:46:53;;;;;;;;;;;25.90;91.80;;;;;;5048910;28;19925;-52
2022/07/02 11:49:24;;;;;;;;;;;25.90;91.80;;;;;;5049073;28;19924;-53
2022/07/02 11:51:53;;;;;;;;;;;25.90;91.80;;;;;;5049113;28;19965;-55
2022/07/02 11:54:20;;;;;;;;;;;25.90;91.80;;;;;;5047918;28;19973;-53
2022/07/02 11:56:48;;;;;;;;;;;25.90;91.80;;;;;;5049752;28;19924;-51
2022/07/02 11:59:17;;;;;;;;;;;25.90;91.80;;;;;;5052036;28;19935;-53
2022/07/02 12:01:45;;;;;;;;;;;25.90;91.80;;;;;;5055630;28;19932;-49
2022/07/02 12:04:15;;;;;;;;;;;25.90;91.80;;;;;;5048222;28;19921;-58
2022/07/02 12:06:44;;;;;;;;;;;25.90;91.80;;;;;;5048548;28;19928;-57
2022/07/02 12:09:12;;;;;;;;;;;25.90;91.70;;;;;;5048371;28;19932;-53
2022/07/02 12:11:41;;;;;;;;;;;25.90;91.70;;;;;;5056651;28;19927;-53
2022/07/02 12:14:09;;;;;;;;;;;25.90;91.80;;;;;;5058828;28;20000;-52
2022/07/02 12:16:37;;;;;;;;;;;25.90;91.80;;;;;;5033047;28;19935;-51
2022/07/02 12:19:06;;;;;;;;;;;25.90;91.80;;;;;;5054125;28;20295;-50
2022/07/02 12:21:38;;;;;;;;;;;25.90;91.80;;;;;;5055172;28;20381;-54
2022/07/02 12:24:05;;;;;;;;;;;25.90;91.80;;;;;;5047046;28;19931;-54
2022/07/02 12:26:32;;;;;;;;;;;25.90;91.80;;;;;;5048217;28;19924;-51
2022/07/02 12:31:53;;;;;;;;;;;25.90;91.80;;;;;;5050165;28;20412;-57
2022/07/02 12:34:22;;;;;;;;;;;25.90;91.70;;;;;;5048450;28;20261;-53
2022/07/02 12:36:53;;;;;;;;;;;26.00;91.70;;;;;;5049054;28;19936;-54
2022/07/02 12:39:22;;;;;;;;;;;25.90;91.70;;;;;;5053409;28;19940;-56
2022/07/02 12:41:49;;;;;;;;;;;25.90;91.70;;;;;;5048610;28;19967;-57
2022/07/02 12:44:20;;;;;;;;;;;25.90;92.00;;;;;;5047728;28;19952;-54
2022/07/02 12:46:51;;;;;;;;;;;26.00;91.70;;;;;;5048425;28;19925;-53
2022/07/02 12:49:22;;;;;;;;;;;26.00;91.70;;;;;;5047406;28;20022;-52
2022/07/02 12:51:50;;;;;;;;;;;26.00;91.70;;;;;;5059782;28;19931;-51
2022/07/02 12:54:17;;;;;;;;;;;26.00;91.70;;;;;;5050226;28;19928;-56
2022/07/02 12:56:44;;;;;;;;;;;26.00;91.70;;;;;;5047303;28;19924;-53
2022/07/02 12:59:11;;;;;;;;;;;26.00;91.70;;;;;;5049875;28;20307;-52
2022/07/02 13:01:39;;;;;;;;;;;26.00;91.90;;;;;;5051832;28;19925;-54
2022/07/02 13:04:06;;;;;;;;;;;26.10;91.60;;;;;;5045554;28;20372;-51
2022/07/02 13:06:33;;;;;;;;;;;26.10;91.60;;;;;;5050676;28;19920;-53
2022/07/02 13:09:00;;;;;;;;;;;26.10;91.60;;;;;;5049683;28;19925;-51
2022/07/02 13:11:27;;;;;;;;;;;26.20;91.60;;;;;;5053019;28;19928;-50
2022/07/02 13:13:54;;;;;;;;;;;26.20;91.50;;;;;;5049743;28;19920;-52
2022/07/02 13:16:21;;;;;;;;;;;26.20;91.50;;;;;;5046568;28;19935;-52
2022/07/02 13:18:49;;;;;;;;;;;26.20;91.50;;;;;;5046064;28;19927;-51
2022/07/02 13:21:22;;;;;;;;;;;26.30;91.50;;;;;;5048173;28;19931;-54
2022/07/02 13:23:49;;;;;;;;;;;26.30;91.50;;;;;;5046748;28;19924;-54
2022/07/02 13:26:17;;;;;;;;;;;26.30;91.40;;;;;;5047085;28;19939;-53
2022/07/02 13:28:44;;;;;;;;;;;26.30;91.40;;;;;;5045699;28;19932;-55
2022/07/02 13:31:11;;;;;;;;;;;26.30;91.40;;;;;;5046847;28;19928;-51
2022/07/02 13:33:38;;;;;;;;;;;26.40;91.40;;;;;;5046624;28;20207;-53
2022/07/02 13:36:05;;;;;;;;;;;26.40;91.30;;;;;;5047738;28;19931;-51
2022/07/02 13:38:32;;;;;;;;;;;26.50;91.30;;;;;;5047276;28;20315;-55
2022/07/02 13:40:59;;;;;;;;;;;26.50;91.20;;;;;;5057572;28;19995;-53
2022/07/02 13:43:26;;;;;;;;;;;26.50;91.20;;;;;;5056425;28;19940;-54
2022/07/02 13:45:54;;;;;;;;;;;26.60;91.20;;;;;;5050636;28;20333;-52
2022/07/02 13:48:21;;;;;;;;;;;26.60;91.10;;;;;;5063330;28;19931;-53
2022/07/02 13:50:48;;;;;;;;;;;26.60;91.10;;;;;;5048141;28;20324;-49
2022/07/02 13:53:18;;;;;;;;;;;26.60;91.00;;;;;;5047050;28;19921;-53
2022/07/02 13:55:45;;;;;;;;;;;26.70;91.00;;;;;;5047161;28;19980;-56
2022/07/02 13:58:16;;;;;;;;;;;26.70;90.90;;;;;;5046587;28;20293;-52
2022/07/02 14:00:43;;;;;;;;;;;26.80;91.00;;;;;;5051606;28;19925;-52
2022/07/02 14:03:10;;;;;;;;;;;26.80;90.90;;;;;;5046462;28;19924;-54
2022/07/02 14:05:37;;;;;;;;;;;26.80;90.80;;;;;;5051143;28;19935;-53
2022/07/02 14:08:04;;;;;;;;;;;26.90;90.80;;;;;;5055914;28;19925;-56
2022/07/02 14:10:32;;;;;;;;;;;26.90;90.80;;;;;;5052903;28;19932;-53
2022/07/02 14:12:59;;;;;;;;;;;27.00;90.80;;;;;;5054192;28;20323;-52
2022/07/02 14:15:27;;;;;;;;;;;27.00;90.70;;;;;;5050633;28;20375;-51
2022/07/02 14:17:54;;;;;;;;;;;27.00;90.70;;;;;;5056664;28;19924;-52
2022/07/02 14:20:21;;;;;;;;;;;27.00;90.60;;;;;;5061886;28;19932;-55
2022/07/02 14:23:06;;;;;;;;;;;27.10;90.60;;;;;;5050838;28;19932;-55
2022/07/02 14:25:34;;;;;;;;;;;27.10;90.50;;;;;;5052813;28;19924;-51
2022/07/02 14:28:01;;;;;;;;;;;27.20;90.50;;;;;;5059328;28;19925;-51